L Anse, Michigan
Current Conditions -  °F | °C
As of 1:53 PM on Saturday 25 Oct 2014 (Local Time) from KCMX Reporting Station
Clear Clear  
Wind Chill: 52°   Ceiling: Unl
Heat Index: 52°   Visibility: 10mi
Dew Point: 34°   Wind: 32mph
Humidity: 50%   Direction: 260°W
Pressure: 29.72"   Gusts: 44mph
Location:  46.7277°N, 88.2881°W
Report Text: KCMX 251753Z AUTO 26028G38KT 10SM CLR 11/01 A2972 RMK AO2 PK WND 28041/1728 SLP066 T01110011 10111 20100 58001
Loading
Personal Weather Stations






























Interactive Weather Map New forecast layout! Learn more

10-Day Weather Forecast

Advertisements
Track Severe Weather on mobile